Ironsides, MD (20643)

10:56 PM EST on February 06, 2016 (GMT -0500)
Caernarvon Woods | | Change Station
CLOSE
Current Station
Personal Weather Station
Location: La Plata, MD
Elevation: 197 ft
Nearby Weather Stations

Elev 197 ft 38.54 °N, 77.03 °W | Updated 6 minutes ago

Clear
Clear
27.7 °F
Feels Like 28 °F
N
0.0
Wind Variable Wind from SSE

Today
High -- | Low -- °F
--% Chance of Precip.
Yesterday
High -- | Low -- °F
Precip. -- in
Pressure 30.32 in
Visibility 10.0 miles
Clouds Clear
Windchill 28 °F
Dew Point 23 °F
Humidity 82%
Rainfall 0.00 in
Snow Depth Not available.
7:09 AM 5:36 PM
Waning Crescent, 3% visible
METAR KNYG 070256Z AUTO 32003KT 10SM CLR 01/M03 A3032 RMK AO2 SLP267 T00061033 58005
Pressure 30.32 in
Visibility 10.0 miles
Clouds Clear
Windchill 28 °F
Dew Point 23 °F
Humidity 82%
Rainfall 0.00 in
Snow Depth Not available.
7:09 AM 5:36 PM
Waning Crescent, 3% visible
METAR KNYG 070256Z AUTO 32003KT 10SM CLR 01/M03 A3032 RMK AO2 SLP267 T00061033 58005

10-Day Weather Forecast

Almanac

Astronomy

Feb. 06, 2016 Rise Set
Actual Time
Civil Twilight
Nautical Twilight
Astronomical Twilight
Moon
Length of Visible Light
Length of Day
Tomorrow will be .
, % of the Moon is Illuminated

Today's Extremes

State Highs State Lows

Community

WunderPhotos

Upload Photos

1,891,154 photos uploaded!

WunderBlog® & News

Nearby

Air Quality

  Air Quality AQ Index Pollutant
Not available.

Snow Depth

Station Depth Elevation

Earthquake Activity

City Distance Mag. Time & Date
Minimum magnitude displayed is 2.5.

Coastal Water Temperatures

Place Temperature

Stations

Nearby Weather Stations

Station Location Temp. Windchill Dew Point Humidity Wind Precip. Elev Updated Type
                   

Watches & Warnings

There are currently no watches in effect.